Jacksonville, Florida
Current Conditions -  °F | °C
As of 4:56 PM on Thursday 27 Nov 2014 (Local Time) from KJAX Reporting Station
Clear Clear  
Wind Chill: 56°   Ceiling: Unl
Heat Index: 56°   Visibility: 10mi
Dew Point: 33°   Wind: 12mph
Humidity: 42%   Direction: 320°NW
Pressure: 30.22"   Gusts: NA
Location:  30.32°N, 81.66°W
Report Text: KJAX 272156Z 32010KT 10SM CLR 13/01 A3022 RMK AO2 SLP234 T01330006 $
Loading
Personal Weather Stations






























Interactive Weather Map New forecast layout! Learn more

10-Day Weather Forecast

Advertisements
Track Severe Weather on mobile